TimeCDT,TemperatureF,Dew PointF,Humidity,Sea Level PressureIn,VisibilityMPH,Wind Direction,Wind SpeedMPH,Gust SpeedMPH,PrecipitationIn,Events,Conditions,WindDirDegrees,DateUTC
12:15 AM,78.1,74.7,89,29.88,10.0,Calm,Calm,-,N/A,,Clear,0,2013-08-31 05:15:00
12:35 AM,77.9,74.5,89,29.87,10.0,Calm,Calm,-,N/A,,Clear,0,2013-08-31 05:35:00
12:55 AM,77.4,74.3,90,29.87,10.0,Calm,Calm,-,N/A,,Clear,0,2013-08-31 05:55:00
1:15 AM,76.3,73.8,92,29.87,10.0,Calm,Calm,-,N/A,,Clear,0,2013-08-31 06:15:00
1:35 AM,76.5,74.1,92,29.86,10.0,NNE,4.6,-,N/A,,Clear,20,2013-08-31 06:35:00
1:55 AM,76.1,74.3,94,29.86,10.0,NNE,3.5,-,N/A,,Clear,30,2013-08-31 06:55:00
2:15 AM,75.4,73.4,94,29.85,10.0,NE,4.6,-,N/A,,Clear,50,2013-08-31 07:15:00
2:35 AM,74.7,72.5,93,29.87,10.0,NW,5.8,-,N/A,,Clear,310,2013-08-31 07:35:00
2:55 AM,74.7,73.0,95,29.88,7.0,NNW,5.8,-,N/A,,Scattered Clouds,340,2013-08-31 07:55:00
3:15 AM,74.3,72.7,95,29.88,10.0,NNW,4.6,-,N/A,,Clear,330,2013-08-31 08:15:00
3:35 AM,74.3,72.5,94,29.88,10.0,North,3.5,-,N/A,,Clear,350,2013-08-31 08:35:00
3:55 AM,73.9,72.5,95,29.89,10.0,Calm,Calm,-,N/A,,Clear,0,2013-08-31 08:55:00
4:15 AM,73.8,71.8,93,29.87,10.0,Calm,Calm,-,N/A,,Clear,0,2013-08-31 09:15:00
4:35 AM,73.4,71.4,93,29.88,10.0,Calm,Calm,-,N/A,,Clear,0,2013-08-31 09:35:00
4:55 AM,72.9,71.2,95,29.87,10.0,NNE,4.6,-,N/A,,Clear,30,2013-08-31 09:55:00
5:15 AM,72.7,70.3,92,29.86,10.0,ENE,3.5,-,N/A,,Clear,60,2013-08-31 10:15:00
5:35 AM,71.8,70.2,95,29.86,10.0,East,3.5,-,N/A,,Clear,80,2013-08-31 10:35:00
5:55 AM,71.1,69.6,95,29.86,7.0,Calm,Calm,-,N/A,,Clear,0,2013-08-31 10:55:00
6:15 AM,71.1,69.8,96,29.87,7.0,SW,9.2,-,N/A,,Clear,230,2013-08-31 11:15:00
6:35 AM,71.2,70.0,96,29.88,10.0,Calm,Calm,-,N/A,,Clear,0,2013-08-31 11:35:00
6:55 AM,71.2,69.8,95,29.89,7.0,WNW,3.5,-,N/A,,Clear,290,2013-08-31 11:55:00
7:15 AM,71.6,70.2,95,29.89,7.0,Calm,Calm,-,N/A,,Clear,0,2013-08-31 12:15:00
7:35 AM,71.6,70.5,96,29.89,7.0,Calm,Calm,-,N/A,,Clear,0,2013-08-31 12:35:00
7:55 AM,72.1,70.9,96,29.89,7.0,Calm,Calm,-,N/A,,Clear,0,2013-08-31 12:55:00
8:15 AM,74.1,72.0,93,29.90,10.0,Calm,Calm,-,N/A,,Clear,0,2013-08-31 13:15:00
8:35 AM,76.1,71.8,86,29.90,10.0,Calm,Calm,-,N/A,,Clear,0,2013-08-31 13:35:00
8:55 AM,75.6,72.0,89,29.91,10.0,Calm,Calm,-,N/A,,Clear,0,2013-08-31 13:55:00
9:15 AM,75.6,72.5,90,29.89,10.0,NE,4.6,-,N/A,,Clear,40,2013-08-31 14:15:00
9:35 AM,75.7,72.3,89,29.90,10.0,Calm,Calm,-,N/A,,Clear,0,2013-08-31 14:35:00
9:55 AM,76.5,72.5,87,29.91,10.0,Calm,Calm,-,N/A,,Clear,0,2013-08-31 14:55:00
10:15 AM,77.0,72.5,86,29.90,10.0,East,3.5,-,N/A,,Clear,100,2013-08-31 15:15:00
10:35 AM,77.0,72.5,86,29.89,10.0,Calm,Calm,-,N/A,,Clear,0,2013-08-31 15:35:00
10:55 AM,77.5,72.5,84,29.89,10.0,Calm,Calm,-,N/A,,Clear,0,2013-08-31 15:55:00
11:15 AM,78.3,72.9,83,29.88,10.0,Calm,Calm,-,N/A,,Clear,0,2013-08-31 16:15:00
11:35 AM,79.0,72.7,81,29.88,10.0,Calm,Calm,-,N/A,,Clear,0,2013-08-31 16:35:00
11:55 AM,79.7,71.8,77,29.88,10.0,Calm,Calm,-,N/A,,Clear,0,2013-08-31 16:55:00
12:15 PM,80.4,71.8,75,29.87,10.0,Calm,Calm,-,N/A,,Clear,0,2013-08-31 17:15:00
12:35 PM,81.7,72.0,72,29.87,10.0,Calm,Calm,-,N/A,,Clear,0,2013-08-31 17:35:00
12:55 PM,84.2,72.1,67,29.87,10.0,Calm,Calm,-,N/A,,Clear,0,2013-08-31 17:55:00
1:15 PM,86.2,72.5,64,29.87,10.0,West,4.6,-,N/A,,Clear,260,2013-08-31 18:15:00
1:35 PM,87.3,72.7,62,29.86,10.0,Calm,Calm,-,N/A,,Clear,0,2013-08-31 18:35:00
1:55 PM,89.1,67.3,48,29.86,10.0,Calm,Calm,-,N/A,,Clear,0,2013-08-31 18:55:00
2:15 PM,89.4,68.2,49,29.86,10.0,NNE,4.6,-,N/A,,Clear,30,2013-08-31 19:15:00
2:35 PM,90.1,63.7,41,29.86,10.0,Calm,Calm,-,N/A,,Clear,0,2013-08-31 19:35:00
2:55 PM,91.2,66.0,43,29.85,10.0,Calm,Calm,-,N/A,,Clear,0,2013-08-31 19:55:00
3:15 PM,90.1,64.4,42,29.84,10.0,Calm,Calm,-,N/A,,Clear,0,2013-08-31 20:15:00
3:35 PM,91.6,63.9,40,29.84,10.0,Calm,Calm,-,N/A,,Clear,0,2013-08-31 20:35:00
3:55 PM,91.9,62.8,38,29.84,10.0,Calm,Calm,-,N/A,,Clear,0,2013-08-31 20:55:00
4:15 PM,91.6,63.3,39,29.83,10.0,Calm,Calm,-,N/A,,Clear,0,2013-08-31 21:15:00
4:35 PM,92.1,64.6,40,29.83,10.0,Calm,Calm,-,N/A,,Clear,0,2013-08-31 21:35:00
4:55 PM,92.5,65.7,41,29.82,10.0,Calm,Calm,-,N/A,,Clear,0,2013-08-31 21:55:00
5:15 PM,92.3,69.6,47,29.81,10.0,South,5.8,-,N/A,,Clear,190,2013-08-31 22:15:00
5:35 PM,91.4,70.5,50,29.81,10.0,South,9.2,-,N/A,,Clear,180,2013-08-31 22:35:00
5:55 PM,90.9,70.7,51,29.82,10.0,SSE,5.8,-,N/A,,Clear,160,2013-08-31 22:55:00
6:15 PM,90.0,70.7,53,29.81,10.0,South,5.8,-,N/A,,Clear,170,2013-08-31 23:15:00
6:35 PM,88.9,70.2,54,29.81,10.0,SSE,6.9,-,N/A,,Clear,160,2013-08-31 23:35:00
6:55 PM,87.8,70.0,55,29.81,10.0,SSE,4.6,-,N/A,,Clear,150,2013-08-31 23:55:00
7:15 PM,86.2,70.0,58,29.81,10.0,SSE,4.6,-,N/A,,Clear,150,2013-09-01 00:15:00
7:35 PM,83.8,70.7,64,29.80,10.0,SE,4.6,-,N/A,,Clear,140,2013-09-01 00:35:00
7:55 PM,81.5,70.9,70,29.81,10.0,SE,4.6,-,N/A,,Clear,140,2013-09-01 00:55:00
8:15 PM,80.6,69.3,68,29.81,10.0,SE,5.8,-,N/A,,Clear,140,2013-09-01 01:15:00
8:35 PM,79.9,69.1,69,29.81,10.0,SSE,5.8,-,N/A,,Clear,150,2013-09-01 01:35:00
8:55 PM,79.3,69.4,72,29.82,10.0,SSE,5.8,-,N/A,,Clear,150,2013-09-01 01:55:00
9:15 PM,78.8,69.3,72,29.82,10.0,SE,5.8,-,N/A,,Clear,140,2013-09-01 02:15:00
9:35 PM,78.1,69.8,76,29.82,10.0,SE,5.8,-,N/A,,Clear,140,2013-09-01 02:35:00
9:55 PM,77.9,69.8,76,29.83,10.0,SSE,3.5,-,N/A,,Clear,160,2013-09-01 02:55:00
10:15 PM,77.4,70.3,79,29.83,10.0,SSE,5.8,-,N/A,,Clear,150,2013-09-01 03:15:00
10:35 PM,77.0,70.7,81,29.83,10.0,SSE,5.8,-,N/A,,Clear,150,2013-09-01 03:35:00
10:55 PM,76.6,70.9,82,29.83,10.0,SSE,5.8,-,N/A,,Clear,150,2013-09-01 03:55:00
11:15 PM,76.5,70.9,83,29.83,10.0,SSE,5.8,-,N/A,,Clear,150,2013-09-01 04:15:00
11:35 PM,76.1,71.6,86,29.83,10.0,SSE,5.8,-,N/A,,Clear,150,2013-09-01 04:35:00
11:55 PM,75.7,71.4,86,29.81,10.0,SE,4.6,-,N/A,,Clear,140,2013-09-01 04:55:00